Last Mistake — WDH2903 — position and weather

sailwx.info

Track history (hours):
 
Tides and Currents Weather Stations Pressure Air Temp Water Temp Dewpoint Dewpoint Depression Visibility Wind Speed Wind Dir Waves Ship Positions

Last Mistake

Owner: Brown, Robert L, Melbourne, FL. More information available from US FCC via Universal Licensing System.

Last reported at 2018-Jun-17 18:12 UTC. Time now 2018-Jun-20 15:14 UTC.
Position N 41°09' W 072°20'.

Length 16 m.

Type: Pleasure craft. MMSI: 367602360.

Date/timePositionNaut miles runAvg speedWind from/ knotsBaromVisibWave heightAir tempDewpointWater temp
2018-Jun-17 18:12N 41°09' W 072°20'6 5.7
2018-Jun-17 17:14N 41°08' W 072°27'3 5.8
2018-Jun-17 16:46N 41°08' W 072°31'  
2018-Jun-11 13:31N 40°45' W 073°58'3 5.7
2018-Jun-11 13:04N 40°43' W 073°59'2 6.4
2018-Jun-11 12:45N 40°41' W 074°01'59 2.6
2018-Jun-10 13:43N 39°42' W 074°04'2 7.4
2018-Jun-10 13:28N 39°41' W 074°05'4 7.3
2018-Jun-10 12:53N 39°37' W 074°07'60 1.3
2018-Jun-08 13:42N 39°16' W 075°20'2 9.4
2018-Jun-08 13:30N 39°17' W 075°21'5 9.2
2018-Jun-08 13:00N 39°21' W 075°25'4 8.7
2018-Jun-08 12:30N 39°24' W 075°29'4 8.1
2018-Jun-08 12:00N 39°27' W 075°32'3 6.9
2018-Jun-08 11:30N 39°31' W 075°33'3 6.3
2018-Jun-08 11:00N 39°34' W 075°33'4 7.5
2018-Jun-08 10:30N 39°33' W 075°38'3 6.7
2018-Jun-08 10:00N 39°33' W 075°42'0 0.3
2018-Jun-08 09:25N 39°33' W 075°42'0 0.0
2018-Jun-08 08:55N 39°33' W 075°42'0 0.0
2018-Jun-08 08:25N 39°33' W 075°42'0 0.0
2018-Jun-08 07:55N 39°33' W 075°42'0 0.0
2018-Jun-08 07:25N 39°33' W 075°42'0 0.0
2018-Jun-08 06:58N 39°33' W 075°42'0 0.0
2018-Jun-08 06:22N 39°33' W 075°42'0 0.0
2018-Jun-08 05:52N 39°33' W 075°42'0 0.0
2018-Jun-08 05:22N 39°33' W 075°42'0 0.0
2018-Jun-08 04:52N 39°33' W 075°42'0 0.0
2018-Jun-08 04:16N 39°33' W 075°42'0 0.0
2018-Jun-08 03:49N 39°33' W 075°42'0 0.0
2018-Jun-08 03:25N 39°33' W 075°42'0 0.0
2018-Jun-08 02:58N 39°33' W 075°42'0 0.0
2018-Jun-08 02:28N 39°33' W 075°42'0 0.0
2018-Jun-08 01:58N 39°33' W 075°42'0 0.0
2018-Jun-08 01:28N 39°33' W 075°42'0 0.0
2018-Jun-08 00:55N 39°33' W 075°42'0 0.0
2018-Jun-08 00:28N 39°33' W 075°42'0 0.0
2018-Jun-07 23:58N 39°33' W 075°42'0 0.0
2018-Jun-07 23:22N 39°33' W 075°42'0 0.0
2018-Jun-07 22:55N 39°33' W 075°42'0 0.0
2018-Jun-07 22:25N 39°33' W 075°42'0 0.0
2018-Jun-07 21:52N 39°33' W 075°42'0 0.0
2018-Jun-07 21:28N 39°33' W 075°42'0 0.0
2018-Jun-07 20:55N 39°33' W 075°42'0 0.0
2018-Jun-07 20:22N 39°33' W 075°42'0 0.0
2018-Jun-07 19:49N 39°33' W 075°42'0 0.0
2018-Jun-07 19:25N 39°33' W 075°42'0 0.0
2018-Jun-07 18:55N 39°33' W 075°42'0 0.0
2018-Jun-07 18:28N 39°33' W 075°42'  
Track history (hours):
 
Tides and Currents Weather Stations Pressure Air Temp Water Temp Dewpoint Dewpoint Depression Visibility Wind Speed Wind Dir Waves Ship Positions

Last Mistake

Owner: Brown, Robert L, Melbourne, FL. More information available from US FCC via Universal Licensing System.

Last reported at 2018-Jun-17 18:12 UTC. Time now 2018-Jun-20 15:14 UTC.
Position N 41°09' W 072°20'.

Length 16 m.

Type: Pleasure craft. MMSI: 367602360.

Date/timePositionNaut miles runAvg speedWind from/ knotsBaromVisibWave heightAir tempDewpointWater temp
2018-Jun-17 18:12N 41°09' W 072°20'6 5.7
2018-Jun-17 17:14N 41°08' W 072°27'3 5.8
2018-Jun-17 16:46N 41°08' W 072°31'  
2018-Jun-11 13:31N 40°45' W 073°58'3 5.7
2018-Jun-11 13:04N 40°43' W 073°59'2 6.4
2018-Jun-11 12:45N 40°41' W 074°01'59 2.6
2018-Jun-10 13:43N 39°42' W 074°04'2 7.4
2018-Jun-10 13:28N 39°41' W 074°05'4 7.3
2018-Jun-10 12:53N 39°37' W 074°07'60 1.3
2018-Jun-08 13:42N 39°16' W 075°20'2 9.4
2018-Jun-08 13:30N 39°17' W 075°21'5 9.2
2018-Jun-08 13:00N 39°21' W 075°25'4 8.7
2018-Jun-08 12:30N 39°24' W 075°29'4 8.1
2018-Jun-08 12:00N 39°27' W 075°32'3 6.9
2018-Jun-08 11:30N 39°31' W 075°33'3 6.3
2018-Jun-08 11:00N 39°34' W 075°33'4 7.5
2018-Jun-08 10:30N 39°33' W 075°38'3 6.7
2018-Jun-08 10:00N 39°33' W 075°42'0 0.3
2018-Jun-08 09:25N 39°33' W 075°42'0 0.0
2018-Jun-08 08:55N 39°33' W 075°42'0 0.0
2018-Jun-08 08:25N 39°33' W 075°42'0 0.0
2018-Jun-08 07:55N 39°33' W 075°42'0 0.0
2018-Jun-08 07:25N 39°33' W 075°42'0 0.0
2018-Jun-08 06:58N 39°33' W 075°42'0 0.0
2018-Jun-08 06:22N 39°33' W 075°42'0 0.0
2018-Jun-08 05:52N 39°33' W 075°42'0 0.0
2018-Jun-08 05:22N 39°33' W 075°42'0 0.0
2018-Jun-08 04:52N 39°33' W 075°42'0 0.0
2018-Jun-08 04:16N 39°33' W 075°42'0 0.0
2018-Jun-08 03:49N 39°33' W 075°42'0 0.0
2018-Jun-08 03:25N 39°33' W 075°42'0 0.0
2018-Jun-08 02:58N 39°33' W 075°42'0 0.0
2018-Jun-08 02:28N 39°33' W 075°42'0 0.0
2018-Jun-08 01:58N 39°33' W 075°42'0 0.0
2018-Jun-08 01:28N 39°33' W 075°42'0 0.0
2018-Jun-08 00:55N 39°33' W 075°42'0 0.0
2018-Jun-08 00:28N 39°33' W 075°42'0 0.0
2018-Jun-07 23:58N 39°33' W 075°42'0 0.0
2018-Jun-07 23:22N 39°33' W 075°42'0 0.0
2018-Jun-07 22:55N 39°33' W 075°42'0 0.0
2018-Jun-07 22:25N 39°33' W 075°42'0 0.0
2018-Jun-07 21:52N 39°33' W 075°42'0 0.0
2018-Jun-07 21:28N 39°33' W 075°42'0 0.0
2018-Jun-07 20:55N 39°33' W 075°42'0 0.0
2018-Jun-07 20:22N 39°33' W 075°42'0 0.0
2018-Jun-07 19:49N 39°33' W 075°42'0 0.0
2018-Jun-07 19:25N 39°33' W 075°42'0 0.0
2018-Jun-07 18:55N 39°33' W 075°42'0 0.0
2018-Jun-07 18:28N 39°33' W 075°42'  

Dump ship's entire track history